Time;durP1;ratioP1;P1;durP2;ratioP2;P2;SDS_P1;SDS_P2;PMS_P1;PMS_P2;Temp;Humidity;BMP_temperature;BMP_pressure;BME280_temperature;BME280_humidity;BME280_pressure;Samples;Min_cycle;Max_cycle;Signal;HPM_P1;HPM_P2
2021/09/15 00:00:41;;;;;;;0.30;0.30;;;;;;;8.14;65.33;98921.38;5022450;28;20122;-74
2021/09/15 00:03:07;;;;;;;0.30;0.30;;;;;;;8.18;65.32;98917.38;5056372;28;20593;-74
2021/09/15 00:05:33;;;;;;;0.30;0.30;;;;;;;8.18;65.50;98920.91;5039262;28;20167;-72
2021/09/15 00:07:58;;;;;;;0.30;0.30;;;;;;;8.27;65.63;98929.94;5055568;28;20087;-73
2021/09/15 00:10:24;;;;;;;0.30;0.30;;;;;;;8.27;65.36;98921.03;5072869;28;20416;-72
2021/09/15 00:12:50;;;;;;;0.22;0.22;;;;;;;8.29;65.13;98925.22;5054357;28;20052;-71
2021/09/15 00:15:16;;;;;;;0.30;0.30;;;;;;;8.33;64.94;98921.22;5054240;28;20079;-73
2021/09/15 00:17:41;;;;;;;0.30;0.30;;;;;;;8.30;65.19;98926.94;5072015;28;20049;-74
2021/09/15 00:20:08;;;;;;;0.30;0.30;;;;;;;8.29;65.19;98925.22;5053852;28;20110;-72
2021/09/15 00:22:34;;;;;;;0.30;0.30;;;;;;;8.29;65.19;98914.47;5071321;28;20052;-72
2021/09/15 00:25:00;;;;;;;0.30;0.30;;;;;;;8.34;65.59;98932.88;5053413;28;20071;-72
2021/09/15 00:27:26;;;;;;;0.30;0.30;;;;;;;8.37;65.41;98925.34;5071108;28;20111;-72
2021/09/15 00:29:52;;;;;;;0.20;0.20;;;;;;;8.42;65.22;98931.09;5053573;28;20136;-72
2021/09/15 00:32:18;;;;;;;0.30;0.30;;;;;;;8.27;65.31;98921.84;5071344;28;20052;-73
2021/09/15 00:34:44;;;;;;;0.20;0.20;;;;;;;8.22;65.68;98930.38;5052716;28;20067;-73
2021/09/15 00:37:10;;;;;;;0.30;0.30;;;;;;;8.29;65.89;98936.00;5053072;28;20060;-70
2021/09/15 00:39:36;;;;;;;0.30;0.30;;;;;;;8.37;65.40;98933.44;5052786;28;20511;-73
2021/09/15 00:42:02;;;;;;;0.30;0.30;;;;;;;8.33;65.41;98936.53;5036478;28;20059;-73
2021/09/15 00:44:28;;;;;;;0.30;0.30;;;;;;;8.33;65.47;98937.38;5053488;28;20056;-72
2021/09/15 00:46:55;;;;;;;0.30;0.30;;;;;;;8.26;66.02;98930.91;5053841;28;20056;-71
2021/09/15 00:49:21;;;;;;;0.20;0.20;;;;;;;8.28;66.24;98939.69;5071721;28;20075;-73
2021/09/15 00:51:48;;;;;;;0.30;0.30;;;;;;;8.19;66.41;98935.22;5052721;28;20064;-72
2021/09/15 00:54:16;;;;;;;0.30;0.30;;;;;;;8.21;66.68;98939.47;5052944;28;20063;-72
2021/09/15 00:56:43;;;;;;;0.30;0.30;;;;;;;8.22;66.50;98934.91;5036208;28;20049;-71
2021/09/15 00:59:10;;;;;;;0.20;0.20;;;;;;;8.18;66.48;98933.53;5052515;28;20060;-73
2021/09/15 01:01:37;;;;;;;0.30;0.30;;;;;;;8.23;66.68;98942.03;5036701;28;20535;-74
2021/09/15 01:04:05;;;;;;;0.30;0.30;;;;;;;8.27;66.82;98942.56;5071514;28;20308;-71
2021/09/15 01:06:33;;;;;;;0.30;0.30;;;;;;;8.28;66.25;98933.47;5053864;28;20060;-73
2021/09/15 01:09:04;;;;;;;0.30;0.30;;;;;;;8.28;66.35;98950.47;5053438;28;20049;-74
2021/09/15 01:11:35;;;;;;;0.30;0.30;;;;;;;8.28;66.65;98955.84;5037053;28;20061;-73
2021/09/15 01:14:11;;;;;;;0.30;0.30;;;;;;;8.28;66.92;98952.31;5038259;28;20057;-71
2021/09/15 01:17:09;;;;;;;0.30;0.30;;;;;;;8.21;66.77;98954.78;5078243;28;20058;-73
2021/09/15 01:19:54;;;;;;;0.30;0.30;;;;;;;8.23;67.14;98952.78;5090547;28;20048;-71
2021/09/15 01:22:46;;;;;;;0.30;0.30;;;;;;;8.17;67.06;98948.00;5086082;28;20056;-72
2021/09/15 01:25:41;;;;;;;0.30;0.30;;;;;;;8.23;67.33;98947.41;5076922;28;20064;-71
2021/09/15 01:28:10;;;;;;;0.30;0.30;;;;;;;8.19;67.30;98951.38;5092054;28;20047;-72
2021/09/15 01:30:43;;;;;;;0.30;0.30;;;;;;;8.15;67.39;98945.47;5057611;28;20044;-73
2021/09/15 01:33:12;;;;;;;0.30;0.30;;;;;;;8.20;67.58;98950.41;5073162;28;20048;-73
2021/09/15 01:35:40;;;;;;;0.20;0.20;;;;;;;8.23;67.48;98952.78;5089172;28;20067;-71
2021/09/15 01:38:05;;;;;;;0.30;0.30;;;;;;;8.31;67.19;98955.56;5072536;28;20052;-71
2021/09/15 01:40:32;;;;;;;0.30;0.30;;;;;;;8.20;67.40;98953.09;5039735;28;20052;-71
2021/09/15 01:42:59;;;;;;;0.30;0.30;;;;;;;8.25;67.38;98945.38;5090273;28;20070;-71
2021/09/15 01:45:25;;;;;;;0.30;0.30;;;;;;;8.25;67.61;98945.38;5090199;28;20048;-71
2021/09/15 01:47:52;;;;;;;0.30;0.30;;;;;;;8.29;67.54;98959.38;5088893;28;20052;-72
2021/09/15 01:50:21;;;;;;;0.30;0.30;;;;;;;8.32;67.45;98957.25;5055941;28;20067;-71
2021/09/15 01:52:47;;;;;;;0.30;0.30;;;;;;;8.39;67.31;98952.97;5072672;28;20470;-73
2021/09/15 01:55:29;;;;;;;0.30;0.30;;;;;;;8.38;67.30;98950.44;5088958;28;20056;-73
2021/09/15 01:58:10;;;;;;;0.28;0.28;;;;;;;8.35;67.36;98951.56;5074691;28;20568;-72
2021/09/15 02:01:11;;;;;;;0.30;0.30;;;;;;;8.24;67.51;98957.16;5027694;28;20056;-72
2021/09/15 02:03:59;;;;;;;0.30;0.30;;;;;;;8.24;67.88;98959.88;5040584;28;20071;-74
2021/09/15 02:06:44;;;;;;;0.30;0.30;;;;;;;8.29;67.88;98968.31;5089003;28;20064;-72
2021/09/15 02:09:26;;;;;;;0.30;0.30;;;;;;;8.24;67.92;98964.41;5074161;28;20404;-73
2021/09/15 02:12:05;;;;;;;0.30;0.30;;;;;;;8.18;68.32;98966.69;5073617;28;20056;-72
2021/09/15 02:14:34;;;;;;;0.30;0.30;;;;;;;8.21;68.45;98970.94;5039012;28;20060;-71
2021/09/15 02:17:00;;;;;;;0.30;0.30;;;;;;;8.28;68.13;98961.25;5054756;28;20507;-72
2021/09/15 02:19:28;;;;;;;0.30;0.30;;;;;;;8.34;67.64;98960.63;5055022;28;20487;-72
2021/09/15 02:22:14;;;;;;;0.30;0.30;;;;;;;8.39;67.52;98968.28;5088906;28;20087;-73
2021/09/15 02:25:07;;;;;;;0.30;0.30;;;;;;;8.38;68.09;98964.75;5090015;28;20580;-71
2021/09/15 02:27:48;;;;;;;0.30;0.30;;;;;;;8.43;67.64;98967.81;5088453;28;20519;-70
2021/09/15 02:30:19;;;;;;;0.22;0.22;;;;;;;8.41;67.60;98966.28;5088341;28;20063;-73
2021/09/15 02:32:55;;;;;;;0.30;0.30;;;;;;;8.36;68.12;98969.41;5055707;28;20147;-72
2021/09/15 02:35:37;;;;;;;0.20;0.20;;;;;;;8.28;68.08;98974.72;5087943;28;20107;-72
2021/09/15 02:38:23;;;;;;;0.30;0.30;;;;;;;8.25;68.58;98982.25;5087534;28;20043;-72
2021/09/15 02:41:08;;;;;;;0.30;0.30;;;;;;;8.27;68.65;98981.09;5089442;28;20066;-74
2021/09/15 02:43:46;;;;;;;0.30;0.30;;;;;;;8.21;68.72;98981.69;5055537;28;20047;-74
2021/09/15 02:46:32;;;;;;;0.30;0.30;;;;;;;8.26;68.71;98979.38;5055876;28;20161;-74
2021/09/15 02:49:27;;;;;;;0.30;0.30;;;;;;;8.39;68.23;98979.91;5064897;28;20048;-75
2021/09/15 02:52:22;;;;;;;0.30;0.30;;;;;;;8.42;68.67;98976.91;5061862;28;20452;-71
2021/09/15 02:55:09;;;;;;;0.30;0.30;;;;;;;8.27;68.81;98981.09;5087883;28;20075;-73
2021/09/15 02:57:38;;;;;;;0.28;0.28;;;;;;;8.26;69.18;98984.78;5070991;28;20048;-72
2021/09/15 03:00:17;;;;;;;0.30;0.30;;;;;;;8.23;68.96;98987.78;5073066;28;20507;-73
2021/09/15 03:02:51;;;;;;;0.30;0.30;;;;;;;8.30;69.11;98990.69;5072077;28;20063;-75
2021/09/15 03:05:42;;;;;;;0.30;0.30;;;;;;;8.31;69.23;98998.63;5085194;28;20060;-71
2021/09/15 03:08:23;;;;;;;0.30;0.30;;;;;;;8.28;69.22;98998.09;5059206;28;20047;-72
2021/09/15 03:10:50;;;;;;;0.30;0.30;;;;;;;8.36;69.13;98999.00;5088145;28;20060;-74
2021/09/15 03:13:15;;;;;;;0.28;0.28;;;;;;;8.41;69.00;98994.06;5089399;28;20384;-74
2021/09/15 03:15:41;;;;;;;0.30;0.30;;;;;;;8.34;69.38;98992.94;5087372;28;20444;-72
2021/09/15 03:18:07;;;;;;;0.30;0.30;;;;;;;8.43;68.90;99002.81;5087166;28;20048;-73
2021/09/15 03:20:34;;;;;;;0.20;0.20;;;;;;;8.49;68.96;99003.22;5070246;28;20051;-71
2021/09/15 03:23:00;;;;;;;0.30;0.30;;;;;;;8.54;68.46;98990.13;5086813;28;20472;-71
2021/09/15 03:25:26;;;;;;;0.30;0.30;;;;;;;8.52;68.77;98994.81;5053211;28;20055;-74
2021/09/15 03:27:52;;;;;;;0.30;0.30;;;;;;;8.52;69.06;99010.97;5072152;28;20052;-73
2021/09/15 03:30:18;;;;;;;0.20;0.20;;;;;;;8.48;69.00;98994.28;5092180;28;20059;-73
2021/09/15 03:32:44;;;;;;;0.30;0.30;;;;;;;8.57;69.09;98993.38;5075672;28;20052;-74
2021/09/15 03:35:11;;;;;;;0.20;0.20;;;;;;;8.62;68.81;99001.81;5092067;28;20440;-74
2021/09/15 03:37:37;;;;;;;0.30;0.30;;;;;;;8.65;68.35;98995.28;5064253;28;20045;-76
2021/09/15 03:40:03;;;;;;;0.30;0.30;;;;;;;8.59;68.79;99002.16;5037963;28;20048;-74
2021/09/15 03:42:31;;;;;;;0.30;0.30;;;;;;;8.62;68.62;99009.06;5037860;28;20408;-76
2021/09/15 03:44:56;;;;;;;0.30;0.30;;;;;;;8.66;69.13;99007.75;5021137;28;20081;-73
2021/09/15 03:47:22;;;;;;;0.30;0.30;;;;;;;8.61;68.93;98999.28;5054602;28;20063;-73
2021/09/15 03:49:48;;;;;;;0.30;0.30;;;;;;;8.63;69.03;99006.22;5038107;28;20510;-73
2021/09/15 03:52:14;;;;;;;0.30;0.30;;;;;;;8.74;68.72;99009.66;5037188;28;20579;-71
2021/09/15 03:54:40;;;;;;;0.30;0.30;;;;;;;8.72;68.80;99012.53;5038445;28;20044;-72
2021/09/15 03:57:06;;;;;;;0.30;0.30;;;;;;;8.73;68.57;99014.19;5038084;28;20068;-75
2021/09/15 03:59:32;;;;;;;0.30;0.30;;;;;;;8.75;68.49;99019.47;5054549;28;20072;-75
2021/09/15 04:02:01;;;;;;;0.20;0.20;;;;;;;8.71;68.93;99021.63;5020436;28;20052;-72
2021/09/15 04:04:27;;;;;;;0.30;0.30;;;;;;;8.72;68.70;99026.00;5021399;28;20091;-71
2021/09/15 04:06:55;;;;;;;0.30;0.30;;;;;;;8.80;68.63;99031.44;5038220;28;20114;-69
2021/09/15 04:09:22;;;;;;;0.30;0.30;;;;;;;8.83;68.25;99036.53;5037901;28;20072;-70
2021/09/15 04:11:48;;;;;;;0.30;0.30;;;;;;;8.83;68.52;99028.44;5041331;28;20143;-76
2021/09/15 04:14:14;;;;;;;0.30;0.30;;;;;;;8.81;68.65;99030.47;5075448;28;20087;-72
2021/09/15 04:16:40;;;;;;;0.30;0.30;;;;;;;8.83;68.72;99041.94;5041972;28;20090;-73
2021/09/15 04:19:06;;;;;;;0.20;0.20;;;;;;;8.87;68.26;99026.28;5041422;28;20048;-73
2021/09/15 04:21:33;;;;;;;0.30;0.30;;;;;;;8.83;68.97;99036.53;5057763;28;20147;-71
2021/09/15 04:32:16;;;;;;;0.20;0.20;;;;;;;8.93;68.85;99050.78;4994095;28;20573;-69
2021/09/15 04:34:43;;;;;;;0.30;0.30;;;;;;;8.94;68.69;99044.38;4978384;28;20160;-73
2021/09/15 04:37:09;;;;;;;0.30;0.30;;;;;;;8.94;69.09;99049.75;5031432;28;20514;-70
2021/09/15 04:39:42;;;;;;;0.30;0.30;;;;;;;8.72;69.98;99055.63;5066516;28;20072;-73
2021/09/15 04:42:08;;;;;;;0.30;0.30;;;;;;;8.75;70.06;99060.72;5021713;28;20159;-70
2021/09/15 04:44:34;;;;;;;0.30;0.30;;;;;;;8.88;69.63;99052.22;5038688;28;20078;-71
2021/09/15 04:47:01;;;;;;;0.30;0.30;;;;;;;8.87;69.14;99048.69;5038421;28;20059;-72
2021/09/15 04:49:28;;;;;;;0.30;0.30;;;;;;;8.90;69.52;99053.78;5022081;28;20221;-70
2021/09/15 04:51:54;;;;;;;0.30;0.30;;;;;;;8.92;69.19;99061.69;5038044;28;20580;-72
2021/09/15 04:54:20;;;;;;;0.30;0.30;;;;;;;9.00;69.17;99063.66;5038500;28;20449;-70
2021/09/15 04:56:51;;;;;;;0.30;0.30;;;;;;;9.03;68.88;99068.69;5054465;28;20052;-71
2021/09/15 04:59:19;;;;;;;0.30;0.30;;;;;;;9.00;68.73;99061.78;5054732;28;20364;-72
2021/09/15 05:01:45;;;;;;;0.30;0.30;;;;;;;9.09;68.63;99068.09;5025671;28;20115;-71
2021/09/15 05:04:11;;;;;;;0.30;0.30;;;;;;;9.12;68.59;99073.19;5041112;28;20052;-73
2021/09/15 05:06:41;;;;;;;0.30;0.30;;;;;;;9.18;68.31;99078.78;5074076;28;20052;-73
2021/09/15 05:09:07;;;;;;;0.30;0.30;;;;;;;9.15;68.42;99087.19;5041505;28;20052;-71
2021/09/15 05:11:40;;;;;;;0.40;0.40;;;;;;;9.17;68.41;99092.41;5041863;28;20064;-71
2021/09/15 05:14:06;;;;;;;0.30;0.30;;;;;;;9.09;68.68;99084.25;5040763;28;20419;-71
2021/09/15 05:16:32;;;;;;;0.30;0.30;;;;;;;9.13;68.85;99086.50;5074461;28;20048;-72
2021/09/15 05:18:58;;;;;;;0.28;0.28;;;;;;;9.10;68.76;99088.66;5041176;28;20056;-71
2021/09/15 05:21:24;;;;;;;0.30;0.30;;;;;;;9.15;68.61;99084.50;5057767;28;20523;-69
2021/09/15 05:23:50;;;;;;;0.30;0.30;;;;;;;9.01;68.25;99082.34;5074052;28;20048;-74
2021/09/15 05:26:17;;;;;;;0.30;0.30;;;;;;;9.00;68.80;99090.59;5041242;28;20051;-73
2021/09/15 05:34:17;;;;;;;0.30;0.30;;;;;;;9.12;68.02;99094.75;5055786;28;20507;-72
2021/09/15 05:36:44;;;;;;;0.30;0.30;;;;;;;9.14;67.75;99099.00;5075422;28;20048;-73
2021/09/15 05:39:12;;;;;;;0.30;0.30;;;;;;;9.17;67.96;99092.41;5059990;28;20131;-71
2021/09/15 05:41:38;;;;;;;0.20;0.20;;;;;;;9.12;68.33;99102.84;5026704;28;20139;-74
2021/09/15 05:44:05;;;;;;;0.30;0.30;;;;;;;9.22;68.67;99100.91;5040114;28;20059;-71
2021/09/15 05:46:31;;;;;;;0.30;0.30;;;;;;;9.23;68.36;99097.19;5043201;28;20494;-72
2021/09/15 05:48:57;;;;;;;0.30;0.30;;;;;;;9.21;68.14;99093.78;5074800;28;20158;-72
2021/09/15 05:51:24;;;;;;;0.30;0.30;;;;;;;9.17;68.60;99098.66;5092430;28;20051;-71
2021/09/15 05:53:53;;;;;;;0.30;0.30;;;;;;;9.36;68.38;99108.44;5058058;28;20063;-71
2021/09/15 05:56:19;;;;;;;0.30;0.30;;;;;;;9.35;68.70;99112.13;5074421;28;20052;-70
2021/09/15 05:58:46;;;;;;;0.40;0.40;;;;;;;9.61;67.72;99105.88;5057978;28;20522;-72
2021/09/15 06:01:12;;;;;;;0.30;0.30;;;;;;;9.62;67.97;99115.69;5057278;28;20071;-71
2021/09/15 06:03:38;;;;;;;0.30;0.30;;;;;;;9.63;67.69;99099.34;5092829;28;20503;-75
2021/09/15 06:06:13;;;;;;;0.30;0.30;;;;;;;9.81;67.32;99114.63;5076273;28;20040;-75
2021/09/15 06:08:39;;;;;;;0.30;0.30;;;;;;;9.86;67.07;99115.84;5041683;28;20052;-74
2021/09/15 06:11:05;;;;;;;0.30;0.30;;;;;;;9.90;66.79;99108.25;5052202;28;20059;-73
2021/09/15 06:13:32;;;;;;;0.30;0.30;;;;;;;9.94;67.01;99123.13;5055351;28;20068;-74
2021/09/15 06:15:58;;;;;;;0.30;0.30;;;;;;;9.97;66.90;99128.22;5074354;28;20098;-74
2021/09/15 06:18:26;;;;;;;0.30;0.30;;;;;;;9.94;66.63;99122.28;5058794;28;20072;-73
2021/09/15 06:21:27;;;;;;;0.30;0.30;;;;;;;10.01;66.63;99134.16;5045846;28;20040;-75
2021/09/15 06:24:07;;;;;;;0.30;0.30;;;;;;;10.07;66.03;99133.50;5079638;28;20060;-72
2021/09/15 06:26:34;;;;;;;0.30;0.30;;;;;;;10.30;65.23;99137.34;5062191;28;20097;-78
2021/09/15 06:29:00;;;;;;;0.30;0.30;;;;;;;10.32;64.29;99138.06;5061691;28;20048;-72
2021/09/15 06:31:26;;;;;;;0.30;0.30;;;;;;;10.29;64.82;99138.38;5039427;28;20049;-73
2021/09/15 06:33:52;;;;;;;0.30;0.30;;;;;;;10.32;64.41;99138.06;5041344;28;20468;-73
2021/09/15 06:36:19;;;;;;;0.30;0.30;;;;;;;10.42;64.50;99142.47;5073914;28;20102;-75
2021/09/15 06:38:45;;;;;;;0.30;0.30;;;;;;;10.28;64.78;99134.00;5074063;28;20048;-76
2021/09/15 06:41:14;;;;;;;0.30;0.30;;;;;;;10.13;65.13;99128.31;5074863;28;20056;-77
2021/09/15 06:43:40;;;;;;;0.30;0.30;;;;;;;10.17;65.47;99145.06;5074311;28;20583;-72
2021/09/15 06:46:06;;;;;;;0.30;0.30;;;;;;;10.11;65.49;99140.28;5074198;28;20084;-73
2021/09/15 06:48:33;;;;;;;0.30;0.30;;;;;;;10.00;65.94;99137.84;5073682;28;20057;-75
2021/09/15 06:50:59;;;;;;;0.20;0.20;;;;;;;10.10;65.59;99144.84;5074441;28;20551;-73
2021/09/15 06:53:26;;;;;;;0.30;0.30;;;;;;;10.21;65.43;99137.47;5073759;28;20044;-75
2021/09/15 06:55:53;;;;;;;0.30;0.30;;;;;;;10.04;66.40;99139.22;5073984;28;20056;-74
2021/09/15 06:58:20;;;;;;;0.30;0.30;;;;;;;10.14;65.85;99140.81;5056304;28;20080;-74
2021/09/15 07:00:46;;;;;;;0.30;0.30;;;;;;;10.22;65.98;99142.69;5039762;28;20044;-75
2021/09/15 07:03:12;;;;;;;0.40;0.40;;;;;;;10.30;65.76;99150.88;5055640;28;20056;-73
2021/09/15 07:08:23;;;;;;;0.30;0.30;;;;;;;10.43;65.45;99149.59;5090133;28;20107;-76
2021/09/15 07:10:49;;;;;;;0.30;0.30;;;;;;;10.64;64.62;99152.72;5091559;28;20117;-74
2021/09/15 07:13:15;;;;;;;0.30;0.30;;;;;;;10.62;64.53;99154.72;5091414;28;20504;-74
2021/09/15 07:15:41;;;;;;;0.30;0.30;;;;;;;10.77;63.99;99161.19;5072874;28;20152;-73
2021/09/15 07:18:07;;;;;;;0.30;0.30;;;;;;;10.75;64.26;99154.25;5072903;28;20048;-74
2021/09/15 07:20:33;;;;;;;0.30;0.30;;;;;;;10.69;64.40;99157.63;5056193;28;20048;-73
2021/09/15 07:23:00;;;;;;;0.30;0.30;;;;;;;10.60;64.24;99160.31;5072895;28;20048;-72
2021/09/15 07:25:26;;;;;;;0.30;0.30;;;;;;;10.59;64.26;99158.59;5073170;28;20201;-73
2021/09/15 07:27:55;;;;;;;0.30;0.30;;;;;;;10.61;64.08;99161.16;5056473;28;20083;-75
2021/09/15 07:30:21;;;;;;;0.30;0.30;;;;;;;10.38;64.75;99147.34;5056922;28;20131;-73
2021/09/15 07:32:48;;;;;;;0.25;0.25;;;;;;;10.44;64.57;99146.72;5056479;28;20164;-73
2021/09/15 07:35:14;;;;;;;0.30;0.30;;;;;;;10.58;64.24;99158.75;5090600;28;20508;-72
2021/09/15 07:37:40;;;;;;;0.47;0.47;;;;;;;10.70;63.55;99146.63;5090683;28;20129;-73
2021/09/15 07:40:08;;;;;;;0.40;0.40;;;;;;;10.83;63.53;99157.84;5090805;28;20048;-72
2021/09/15 07:42:34;;;;;;;0.30;0.30;;;;;;;10.97;62.77;99169.00;5072523;28;20056;-71
2021/09/15 07:45:00;;;;;;;0.30;0.30;;;;;;;10.88;62.76;99159.19;5072188;28;20044;-72
2021/09/15 07:47:26;;;;;;;0.30;0.30;;;;;;;10.71;63.10;99169.94;5055559;28;20052;-73
2021/09/15 07:49:58;;;;;;;0.30;0.30;;;;;;;10.65;63.26;99180.59;5072195;28;20051;-74
2021/09/15 07:52:24;;;;;;;0.30;0.30;;;;;;;10.62;63.08;99179.03;5053418;28;20539;-75
2021/09/15 07:54:50;;;;;;;0.20;0.20;;;;;;;10.49;63.22;99186.75;5072596;28;20115;-73
2021/09/15 07:57:17;;;;;;;0.30;0.30;;;;;;;10.54;63.03;99187.13;5072896;28;20056;-72
2021/09/15 07:59:44;;;;;;;0.30;0.30;;;;;;;10.52;63.97;99183.72;5072585;28;20479;-74
2021/09/15 08:02:10;;;;;;;0.30;0.30;;;;;;;10.36;64.01;99177.25;5072589;28;20055;-73
2021/09/15 08:04:36;;;;;;;0.30;0.30;;;;;;;10.40;63.71;99193.16;5055764;28;20493;-74
2021/09/15 08:07:02;;;;;;;0.30;0.30;;;;;;;10.44;63.22;99186.41;5071973;28;20083;-73
2021/09/15 08:09:28;;;;;;;0.30;0.30;;;;;;;10.45;63.34;99193.50;5072377;28;20052;-71
2021/09/15 08:11:54;;;;;;;0.30;0.30;;;;;;;10.54;62.97;99200.66;5090559;28;20532;-73
2021/09/15 08:33:23;;;;;;;0.30;0.30;;;;;;;10.19;62.93;99218.66;5092753;28;20051;-74
2021/09/15 08:35:49;;;;;;;0.30;0.30;;;;;;;10.13;62.67;99214.75;5094123;28;20056;-73
2021/09/15 08:38:16;;;;;;;0.30;0.30;;;;;;;10.21;62.60;99222.06;5059789;28;20052;-73
2021/09/15 08:40:42;;;;;;;0.30;0.30;;;;;;;10.23;62.46;99224.59;5059535;28;20043;-73
2021/09/15 08:43:07;;;;;;;0.30;0.30;;;;;;;10.18;62.50;99233.16;5075625;28;20664;-74
2021/09/15 08:45:33;;;;;;;0.30;0.30;;;;;;;10.28;62.59;99231.25;5076641;28;20087;-73
2021/09/15 08:48:02;;;;;;;0.30;0.30;;;;;;;10.29;61.35;99219.44;5075662;28;20150;-73
2021/09/15 08:53:21;;;;;;;0.30;0.30;;;;;;;10.31;61.60;99236.34;5091445;28;20054;-73
2021/09/15 08:55:48;;;;;;;0.30;0.30;;;;;;;10.27;61.22;99237.63;5043422;28;20573;-72
2021/09/15 08:58:15;;;;;;;0.20;0.20;;;;;;;10.17;62.26;99236.88;5076114;28;20135;-73
2021/09/15 09:00:42;;;;;;;0.30;0.30;;;;;;;10.23;62.14;99241.63;5060023;28;20052;-75
2021/09/15 09:06:11;;;;;;;0.30;0.30;;;;;;;10.35;62.24;99243.13;5091352;28;20399;-74
2021/09/15 09:08:41;;;;;;;0.30;0.30;;;;;;;10.54;62.58;99249.28;5026134;28;20457;-73
2021/09/15 09:11:08;;;;;;;0.30;0.30;;;;;;;10.60;61.81;99256.75;5074722;28;20052;-74
2021/09/15 09:13:35;;;;;;;0.30;0.30;;;;;;;10.54;62.06;99254.69;5075047;28;20690;-73
2021/09/15 09:16:02;;;;;;;0.30;0.30;;;;;;;10.49;61.43;99255.16;5094024;28;20094;-72
2021/09/15 09:18:28;;;;;;;0.30;0.30;;;;;;;10.58;60.57;99256.91;5059128;28;20090;-73
2021/09/15 09:20:54;;;;;;;0.30;0.30;;;;;;;10.37;60.21;99249.19;5074507;28;20066;-74
2021/09/15 09:23:20;;;;;;;0.30;0.30;;;;;;;10.53;60.07;99258.38;5072825;28;20059;-74
2021/09/15 09:25:54;;;;;;;0.30;0.30;;;;;;;10.50;59.34;99258.72;5073849;28;20051;-72
2021/09/15 09:28:21;;;;;;;0.30;0.30;;;;;;;10.68;58.87;99269.47;5057930;28;20495;-73
2021/09/15 09:30:52;;;;;;;0.30;0.30;;;;;;;10.74;58.71;99271.50;5074960;28;20059;-73
2021/09/15 09:33:20;;;;;;;0.30;0.30;;;;;;;10.73;58.62;99275.25;5058995;28;20414;-73
2021/09/15 09:35:48;;;;;;;0.30;0.30;;;;;;;10.61;59.29;99271.97;5075780;28;20044;-73
2021/09/15 09:38:20;;;;;;;0.30;0.30;;;;;;;10.74;59.53;99275.06;5058552;28;20113;-74
2021/09/15 09:41:10;;;;;;;0.30;0.30;;;;;;;10.98;59.15;99273.50;5058414;28;20047;-72
2021/09/15 09:55:21;;;;;;;0.40;0.40;;;;;;;12.05;55.11;99284.38;5071299;28;20419;-76
2021/09/15 09:57:51;;;;;;;0.40;0.40;;;;;;;12.19;53.46;99276.56;5070820;28;20048;-71
2021/09/15 10:00:18;;;;;;;0.40;0.40;;;;;;;12.21;52.97;99272.69;5050287;28;20047;-74
2021/09/15 10:02:46;;;;;;;0.40;0.40;;;;;;;12.14;53.37;99278.94;5057814;28;20106;-74
2021/09/15 10:05:15;;;;;;;0.40;0.40;;;;;;;12.48;52.82;99267.91;5071990;28;20052;-73
2021/09/15 10:07:41;;;;;;;0.40;0.40;;;;;;;12.97;51.63;99273.16;5042456;28;20131;-75
2021/09/15 10:10:15;;;;;;;0.30;0.30;;;;;;;12.96;50.77;99277.75;5057952;28;20048;-73
2021/09/15 10:12:41;;;;;;;0.30;0.30;;;;;;;13.14;51.10;99269.34;5074492;28;20419;-73
2021/09/15 10:15:09;;;;;;;0.30;0.30;;;;;;;13.12;50.81;99282.22;5055776;28;20369;-73
2021/09/15 10:17:38;;;;;;;0.30;0.30;;;;;;;13.01;50.34;99282.63;5040910;28;20051;-73
2021/09/15 10:20:08;;;;;;;0.30;0.30;;;;;;;12.57;51.56;99288.53;5091962;28;20055;-72
2021/09/15 10:22:43;;;;;;;0.30;0.30;;;;;;;12.61;51.54;99283.59;5074489;28;20059;-73
2021/09/15 10:25:10;;;;;;;0.30;0.30;;;;;;;12.49;51.87;99283.13;5058420;28;20063;-74
2021/09/15 10:28:02;;;;;;;0.30;0.30;;;;;;;12.51;51.67;99281.09;5057418;28;20152;-73
2021/09/15 10:30:44;;;;;;;0.40;0.40;;;;;;;12.59;51.65;99281.09;5057691;28;20044;-74
2021/09/15 10:39:24;;;;;;;0.30;0.30;;;;;;;13.58;48.53;99293.22;5089856;28;20051;-74
2021/09/15 10:41:50;;;;;;;0.30;0.30;;;;;;;13.44;48.19;99297.56;5074193;28;20141;-74
2021/09/15 10:44:16;;;;;;;0.30;0.30;;;;;;;13.14;50.25;99301.91;5057473;28;20043;-73
2021/09/15 10:46:44;;;;;;;0.30;0.30;;;;;;;13.06;49.85;99298.41;5024070;28;20422;-73
2021/09/15 11:00:18;;;;;;;0.40;0.40;;;;;;;13.99;47.18;99314.69;5070501;28;20064;-73
2021/09/15 11:02:49;;;;;;;0.50;0.50;;;;;;;14.31;45.47;99316.28;5092036;28;20050;-73
2021/09/15 11:05:27;;;;;;;0.80;0.80;;;;;;;15.53;42.34;99305.91;5073586;28;20079;-73
2021/09/15 11:07:59;;;;;;;1.60;1.60;;;;;;;16.25;40.58;99309.63;5056958;28;20081;-74
2021/09/15 11:10:34;;;;;;;0.30;0.30;;;;;;;17.02;38.64;99306.84;5056531;28;20124;-72
2021/09/15 11:13:05;;;;;;;0.20;0.20;;;;;;;16.02;40.68;99302.50;5073252;28;20074;-73
2021/09/15 11:15:47;;;;;;;0.30;0.30;;;;;;;14.76;42.90;99303.63;5073436;28;20048;-73
2021/09/15 11:18:27;;;;;;;1.40;1.40;;;;;;;16.64;39.87;99326.31;5073966;28;20152;-74
2021/09/15 11:21:11;;;;;;;0.30;0.30;;;;;;;15.90;40.94;99296.72;5073349;28;20142;-73
2021/09/15 11:23:37;;;;;;;0.65;0.65;;;;;;;16.01;40.41;99308.13;5058145;28;20048;-74
2021/09/15 11:26:05;;;;;;;0.40;0.40;;;;;;;16.23;40.35;99311.69;5040182;28;20044;-74
2021/09/15 11:59:29;;;;;;;0.20;0.20;;;;;;;14.36;43.04;99316.56;5034137;28;20049;-73
2021/09/15 12:01:57;;;;;;;0.20;0.20;;;;;;;14.21;42.99;99310.25;5019943;28;20424;-72
2021/09/15 12:04:24;;;;;;;0.20;0.20;;;;;;;14.07;44.32;99317.31;5036881;28;20107;-73
2021/09/15 14:03:35;;;;;;;0.20;0.20;;;;;;;13.47;43.01;99342.53;5091284;28;20110;-72
2021/09/15 14:06:01;;;;;;;0.20;0.20;;;;;;;13.33;43.29;99332.41;5057726;28;20135;-73
2021/09/15 14:08:27;;;;;;;0.20;0.20;;;;;;;13.25;43.37;99338.72;5040740;28;20155;-73
2021/09/15 14:10:53;;;;;;;0.20;0.20;;;;;;;13.18;43.92;99346.69;5054134;28;20078;-73
2021/09/15 14:13:19;;;;;;;0.20;0.20;;;;;;;13.11;44.04;99340.25;5040952;28;20080;-73
2021/09/15 14:15:45;;;;;;;0.20;0.20;;;;;;;13.10;43.80;99344.00;5073923;28;20140;-72
2021/09/15 14:18:12;;;;;;;0.25;0.25;;;;;;;13.04;44.02;99352.84;5057227;28;20120;-73
2021/09/15 15:02:40;;;;;;;0.20;0.20;;;;;;;12.25;46.45;99385.16;5048849;28;20092;-73
2021/09/15 15:05:07;;;;;;;0.20;0.20;;;;;;;12.31;46.08;99392.59;5000408;28;20223;-73
2021/09/15 15:07:33;;;;;;;0.20;0.20;;;;;;;12.31;46.44;99392.59;4999811;28;20459;-72
2021/09/15 15:27:25;;;;;;;0.20;0.20;;;;;;;11.89;47.81;99403.56;5090375;28;20412;-73
2021/09/15 15:29:51;;;;;;;0.20;0.20;;;;;;;11.92;47.61;99410.50;5057341;28;20052;-73
2021/09/15 15:32:17;;;;;;;0.20;0.20;;;;;;;11.84;48.29;99405.91;5057855;28;20130;-73
2021/09/15 15:34:43;;;;;;;0.20;0.20;;;;;;;11.83;48.10;99405.06;5074235;28;20055;-75
2021/09/15 15:40:16;;;;;;;0.20;0.20;;;;;;;11.73;49.18;99403.47;5078209;28;20364;-73
2021/09/15 15:42:43;;;;;;;0.20;0.20;;;;;;;11.68;49.23;99395.84;5036724;28;20056;-74
2021/09/15 15:45:09;;;;;;;0.20;0.20;;;;;;;11.62;48.68;99404.63;5019888;28;20131;-73
2021/09/15 15:47:36;;;;;;;0.20;0.20;;;;;;;11.57;48.74;99399.69;5052706;28;20048;-75
2021/09/15 15:50:04;;;;;;;0.20;0.20;;;;;;;11.64;48.69;99408.03;5036354;28;20573;-73
2021/09/15 15:52:30;;;;;;;0.20;0.20;;;;;;;11.57;48.82;99409.69;5019955;28;20374;-76
2021/09/15 15:54:57;;;;;;;0.20;0.20;;;;;;;11.61;48.75;99411.06;5070081;28;20416;-73
2021/09/15 16:41:22;;;;;;;0.20;0.20;;;;;;;9.78;55.77;99430.78;5091275;28;20044;-73
2021/09/15 16:43:48;;;;;;;0.20;0.20;;;;;;;9.75;55.72;99426.53;5068856;28;20053;-73
2021/09/15 16:46:15;;;;;;;0.20;0.20;;;;;;;9.72;55.56;99426.00;5072650;28;20100;-73
2021/09/15 16:48:41;;;;;;;0.20;0.20;;;;;;;9.68;55.14;99433.53;5066533;28;20048;-73
2021/09/15 17:48:09;;;;;;;0.30;0.30;;;;;;;8.66;63.58;99446.97;5064192;28;20482;-79
2021/09/15 17:50:36;;;;;;;0.30;0.30;;;;;;;8.54;63.11;99445.44;5041626;28;20049;-78
2021/09/15 17:53:04;;;;;;;0.28;0.28;;;;;;;8.45;63.72;99448.00;5065767;28;20067;-73
2021/09/15 17:55:31;;;;;;;0.30;0.30;;;;;;;8.36;64.24;99447.94;5036257;28;20090;-80
2021/09/15 17:57:57;;;;;;;0.30;0.30;;;;;;;8.27;65.72;99444.28;5034683;28;20073;-75
2021/09/15 18:00:23;;;;;;;0.30;0.30;;;;;;;8.24;64.82;99449.94;5045919;28;20059;-78
2021/09/15 18:02:49;;;;;;;0.30;0.30;;;;;;;8.18;65.45;99450.50;5066399;28;20048;-76
2021/09/15 18:05:16;;;;;;;0.30;0.30;;;;;;;8.12;65.50;99451.09;5020703;28;20374;-75
2021/09/15 18:07:42;;;;;;;0.30;0.30;;;;;;;8.15;65.96;99461.53;5051354;28;20044;-74
2021/09/15 18:10:11;;;;;;;0.30;0.30;;;;;;;8.11;65.05;99449.34;5057734;28;20158;-75